createdAt,value
2023-04-22T00:03:27.149Z,101500.84
2023-04-22T00:07:29.325Z,101496.50
2023-04-22T00:11:31.115Z,101487.66
2023-04-22T00:15:33.031Z,101486.84
2023-04-22T00:19:35.001Z,101483.31
2023-04-22T00:23:40.038Z,101485.00
2023-04-22T00:27:41.780Z,101480.56
2023-04-22T00:31:43.606Z,101476.09
2023-04-22T00:35:46.766Z,101466.44
2023-04-22T00:39:48.465Z,101464.72
2023-04-22T00:43:51.518Z,101460.31
2023-04-22T00:47:53.584Z,101456.75
2023-04-22T00:51:55.449Z,101460.28
2023-04-22T00:55:57.436Z,101458.53
2023-04-22T00:59:59.328Z,101454.09
2023-04-22T01:04:02.052Z,101443.50
2023-04-22T01:08:04.038Z,101441.72
2023-04-22T01:12:06.448Z,101445.22
2023-04-22T01:16:10.916Z,101436.41
2023-04-22T01:20:14.007Z,101438.06
2023-04-22T01:24:15.935Z,101433.59
2023-04-22T01:28:17.971Z,101431.09
2023-04-22T01:32:22.246Z,101423.97
2023-04-22T01:36:24.387Z,101422.13
2023-04-22T01:40:26.860Z,101415.75
2023-04-22T01:44:28.983Z,101412.28
2023-04-22T01:48:33.257Z,101412.34
2023-04-22T01:52:35.611Z,101404.47
2023-04-22T01:57:25.195Z,101392.16
2023-04-22T02:01:29.408Z,101393.03
2023-04-22T02:05:31.555Z,101397.44
2023-04-22T02:09:33.736Z,101384.25
2023-04-22T02:13:41.044Z,101378.88
2023-04-22T02:17:43.703Z,101378.88
2023-04-22T02:21:47.233Z,101377.81
2023-04-22T02:25:52.876Z,101369.19
2023-04-22T02:29:54.893Z,101373.59
2023-04-22T02:33:56.695Z,101363.91
2023-04-22T02:37:58.556Z,101371.84
2023-04-22T02:42:01.862Z,101369.13
2023-04-22T02:46:03.697Z,101362.72
2023-04-22T02:50:07.163Z,101365.88
2023-04-22T02:54:08.891Z,101359.84
2023-04-22T02:58:10.685Z,101362.41
2023-04-22T03:02:12.668Z,101357.41
2023-04-22T03:06:34.172Z,101357.97
2023-04-22T03:10:36.283Z,101345.94
2023-04-22T03:14:38.078Z,101347.88
2023-04-22T03:18:40.109Z,101339.00
2023-04-22T03:22:41.897Z,101336.25
2023-04-22T03:26:46.307Z,101342.53
2023-04-22T03:30:48.847Z,101334.47
2023-04-22T03:34:51.015Z,101340.56
2023-04-22T03:38:54.120Z,101339.91
2023-04-22T03:42:59.629Z,101334.59
2023-04-22T03:47:01.618Z,101332.00
2023-04-22T03:51:09.499Z,101326.81
2023-04-22T03:55:15.821Z,101319.75
2023-04-22T03:59:18.821Z,101315.34
2023-04-22T04:03:21.072Z,101318.00
2023-04-22T04:07:26.443Z,101306.50
2023-04-22T04:11:28.233Z,101309.19
2023-04-22T04:15:32.727Z,101299.47
2023-04-22T04:19:36.926Z,101304.78
2023-04-22T04:24:05.005Z,101303.91
2023-04-22T04:28:11.307Z,101296.84
2023-04-22T04:32:15.668Z,101303.88
2023-04-22T04:36:17.665Z,101308.25
2023-04-22T04:40:21.528Z,101294.31
2023-04-22T04:44:33.858Z,101300.13
2023-04-22T04:54:12.771Z,101298.59
2023-04-22T04:58:44.242Z,101295.91
2023-04-22T05:02:57.126Z,101295.47
2023-04-22T05:07:11.139Z,101287.00
2023-04-22T05:11:16.007Z,101294.06
2023-04-22T05:15:21.035Z,101289.94
2023-04-22T05:19:28.946Z,101288.84
2023-04-22T05:23:34.858Z,101294.06
2023-04-22T05:27:41.279Z,101279.19
2023-04-22T05:31:45.130Z,101272.78
2023-04-22T05:35:49.138Z,101267.19
2023-04-22T05:39:53.389Z,101261.56
2023-04-22T05:43:57.944Z,101266.13
2023-04-22T05:48:03.677Z,101261.97
2023-04-22T05:52:11.415Z,101261.81
2023-04-22T05:56:25.038Z,101260.25
2023-04-22T06:00:28.164Z,101265.25
2023-04-22T06:04:45.576Z,101259.25
2023-04-22T06:08:48.836Z,101258.66
2023-04-22T06:12:52.792Z,101260.88
2023-04-22T06:17:27.883Z,101259.66
2023-04-22T06:21:33.885Z,101256.88
2023-04-22T06:25:41.298Z,101255.19
2023-04-22T06:29:45.751Z,101258.63
2023-04-22T06:33:50.333Z,101253.72
2023-04-22T06:37:55.647Z,101259.50
2023-04-22T06:42:02.446Z,101255.66
2023-04-22T06:46:23.312Z,101255.91
2023-04-22T06:51:08.793Z,101250.72
2023-04-22T06:55:13.214Z,101246.44
2023-04-22T06:59:15.083Z,101239.31
2023-04-22T07:03:17.275Z,101235.97
2023-04-22T07:07:21.995Z,101232.50
2023-04-22T07:11:36.211Z,101233.22
2023-04-22T07:15:46.741Z,101229.06
2023-04-22T07:19:51.831Z,101227.00
2023-04-22T07:23:53.567Z,101232.66
2023-04-22T07:27:55.274Z,101225.53
2023-04-22T07:31:57.949Z,101224.53
2023-04-22T07:36:02.078Z,101225.75
2023-04-22T07:40:04.124Z,101221.00
2023-04-22T07:44:06.072Z,101214.53
2023-04-22T07:48:07.799Z,101209.69
2023-04-22T07:52:09.631Z,101206.22
2023-04-22T07:56:11.618Z,101203.09
2023-04-22T08:00:14.680Z,101207.06
2023-04-22T08:04:17.127Z,101200.47
2023-04-22T08:08:20.914Z,101190.97
2023-04-22T08:12:22.960Z,101188.22
2023-04-22T08:16:24.734Z,101186.09
2023-04-22T08:20:28.750Z,101193.50
2023-04-22T08:24:30.582Z,101184.88
2023-04-22T08:28:32.709Z,101172.09
2023-04-22T08:32:34.862Z,101184.63
2023-04-22T08:36:36.829Z,101163.72
2023-04-22T08:40:42.327Z,101165.47
2023-04-22T08:44:45.482Z,101169.78
2023-04-22T08:48:49.882Z,101165.19
2023-04-22T08:52:51.762Z,101172.44
2023-04-22T08:56:53.889Z,101166.00
2023-04-22T09:00:56.068Z,101167.84
2023-04-22T09:04:58.626Z,101160.84
2023-04-22T09:09:03.471Z,101144.00
2023-04-22T09:13:09.764Z,101149.22
2023-04-22T09:17:14.990Z,101152.28
2023-04-22T09:21:17.224Z,101137.69
2023-04-22T09:25:24.557Z,101133.63
2023-04-22T09:29:31.578Z,101131.06
2023-04-22T09:33:33.819Z,101122.00
2023-04-22T09:37:46.586Z,101133.50
2023-04-22T09:42:12.811Z,101129.38
2023-04-22T09:46:14.848Z,101114.72
2023-04-22T09:50:20.661Z,101120.00
2023-04-22T09:54:58.704Z,101107.09
2023-04-22T09:59:01.649Z,101101.84
2023-04-22T10:03:05.787Z,101094.00
2023-04-22T10:07:11.198Z,101089.06
2023-04-22T10:11:18.078Z,101077.22
2023-04-22T10:15:21.033Z,101071.13
2023-04-22T10:19:24.611Z,101058.91
2023-04-22T10:23:37.096Z,101055.66
2023-04-22T10:27:41.370Z,101055.25
2023-04-22T10:31:51.522Z,101043.34
2023-04-22T10:36:11.335Z,101038.09
2023-04-22T10:40:18.246Z,101049.00
2023-04-22T10:44:52.390Z,101033.06
2023-04-22T10:49:11.414Z,101037.84
2023-04-22T10:53:48.967Z,101040.66
2023-04-22T10:57:54.030Z,101043.84
2023-04-22T11:02:05.559Z,101035.09
2023-04-22T11:06:18.494Z,101024.09
2023-04-22T11:10:44.349Z,101025.78
2023-04-22T11:15:11.345Z,101017.03
2023-04-22T11:19:15.708Z,101024.09
2023-04-22T11:23:28.179Z,101013.88
2023-04-22T11:27:30.538Z,101010.53
2023-04-22T11:32:08.181Z,101008.19
2023-04-22T11:36:13.033Z,101012.56
2023-04-22T11:40:30.224Z,101011.75
2023-04-22T11:44:52.185Z,101010.53
2023-04-22T11:49:17.259Z,101010.25
2023-04-22T11:53:23.997Z,100995.53
2023-04-22T11:58:08.098Z,100989.88
2023-04-22T12:02:12.621Z,100986.84
2023-04-22T12:06:27.505Z,100987.63
2023-04-22T12:10:57.248Z,100976.06
2023-04-22T12:15:07.964Z,100979.66
2023-04-22T12:19:33.847Z,100978.84
2023-04-22T12:24:12.880Z,100972.53
2023-04-22T12:28:22.315Z,100958.59
2023-04-22T12:32:39.417Z,100973.78
2023-04-22T12:37:15.765Z,100964.19
2023-04-22T12:41:27.262Z,100955.00
2023-04-22T12:45:53.752Z,100950.53
2023-04-22T12:50:07.660Z,100943.03
2023-04-22T12:54:21.922Z,100945.44
2023-04-22T12:58:53.052Z,100935.66
2023-04-22T13:02:57.719Z,100923.53
2023-04-22T13:07:06.542Z,100922.06
2023-04-22T13:11:13.035Z,100917.53
2023-04-22T13:15:18.744Z,100911.16
2023-04-22T13:19:28.882Z,100899.19
2023-04-22T13:23:33.933Z,100901.44
2023-04-22T13:27:44.533Z,100898.78
2023-04-22T13:32:21.590Z,100890.41
2023-04-22T13:36:31.754Z,100886.72
2023-04-22T13:40:37.172Z,100884.88
2023-04-22T13:44:45.624Z,100884.53
2023-04-22T13:49:24.409Z,100878.19
2023-04-22T13:53:26.651Z,100874.19
2023-04-22T13:57:33.108Z,100871.28
2023-04-22T14:01:45.785Z,100870.75
2023-04-22T14:05:49.922Z,100867.00
2023-04-22T14:09:54.032Z,100860.28
2023-04-22T14:13:57.198Z,100845.75
2023-04-22T14:18:03.485Z,100836.59
2023-04-22T14:22:11.822Z,100830.63
2023-04-22T14:26:17.550Z,100831.69
2023-04-22T14:30:23.165Z,100825.13
2023-04-22T14:34:29.079Z,100815.00
2023-04-22T14:38:37.800Z,100817.59
2023-04-22T14:42:39.804Z,100809.81
2023-04-22T14:46:46.103Z,100804.06
2023-04-22T14:50:48.077Z,100810.41
2023-04-22T14:55:03.611Z,100797.44
2023-04-22T14:59:13.236Z,100798.34
2023-04-22T15:03:22.811Z,100790.06
2023-04-22T15:07:32.729Z,100787.63
2023-04-22T15:11:37.277Z,100772.13
2023-04-22T15:15:53.721Z,100775.72
2023-04-22T15:20:18.605Z,100767.94
2023-04-22T15:24:20.646Z,100767.75
2023-04-22T15:28:24.411Z,100755.69
2023-04-22T15:32:26.244Z,100754.19
2023-04-22T15:36:30.148Z,100747.69
2023-04-22T15:40:32.008Z,100742.09
2023-04-22T15:44:34.806Z,100753.31
2023-04-22T15:48:38.171Z,100752.28
2023-04-22T15:53:13.995Z,100736.53
2023-04-22T15:57:16.067Z,100735.44
2023-04-22T16:01:20.213Z,100743.44
2023-04-22T16:05:25.292Z,100737.78
2023-04-22T16:09:27.308Z,100740.19
2023-04-22T16:13:31.495Z,100730.50
2023-04-22T16:17:33.353Z,100735.97
2023-04-22T16:21:35.847Z,100734.38
2023-04-22T16:25:37.654Z,100730.94
2023-04-22T16:29:39.761Z,100718.88
2023-04-22T16:33:41.827Z,100715.16
2023-04-22T16:37:47.896Z,100720.81
2023-04-22T16:42:11.739Z,100723.19
2023-04-22T16:46:13.907Z,100709.31
2023-04-22T16:50:17.230Z,100701.81
2023-04-22T16:54:18.930Z,100697.56
2023-04-22T16:58:21.331Z,100688.00
2023-04-22T17:02:23.193Z,100691.94
2023-04-22T17:06:39.935Z,100696.28
2023-04-22T17:10:45.396Z,100696.38
2023-04-22T17:15:19.222Z,100688.19
2023-04-22T17:19:20.955Z,100675.53
2023-04-22T17:23:27.026Z,100675.44
2023-04-22T17:27:28.688Z,100662.03
2023-04-22T17:31:31.178Z,100667.22
2023-04-22T17:35:32.938Z,100656.13
2023-04-22T17:39:35.886Z,100651.78
2023-04-22T17:43:37.617Z,100654.88
2023-04-22T17:47:39.438Z,100650.34
2023-04-22T17:51:41.493Z,100638.56
2023-04-22T17:55:43.454Z,100648.66
2023-04-22T17:59:45.255Z,100647.88
2023-04-22T18:03:47.483Z,100642.22
2023-04-22T18:07:49.625Z,100649.38
2023-04-22T18:12:06.093Z,100648.97
2023-04-22T18:16:08.223Z,100646.28
2023-04-22T18:20:18.082Z,100649.19
2023-04-22T18:24:45.315Z,100646.09
2023-04-22T18:28:47.352Z,100652.69
2023-04-22T18:32:50.855Z,100656.72
2023-04-22T18:36:55.684Z,100655.47
2023-04-22T18:41:31.271Z,100655.59
2023-04-22T18:45:33.010Z,100657.66
2023-04-22T18:50:01.241Z,100662.72
2023-04-22T18:54:05.417Z,100661.63
2023-04-22T18:58:07.196Z,100655.81
2023-04-22T19:02:13.838Z,100662.38
2023-04-22T19:06:15.709Z,100661.00
2023-04-22T19:10:29.170Z,100657.56
2023-04-22T19:14:31.018Z,100655.66
2023-04-22T19:18:32.797Z,100654.00
2023-04-22T19:23:04.785Z,100654.31
2023-04-22T19:27:12.157Z,100651.44
2023-04-22T19:31:15.120Z,100643.75
2023-04-22T19:35:17.031Z,100644.97
2023-04-22T19:39:18.821Z,100643.50
2023-04-22T19:43:21.943Z,100638.06
2023-04-22T19:47:23.886Z,100630.78
2023-04-22T19:51:26.146Z,100626.53
2023-04-22T19:55:27.929Z,100617.44
2023-04-22T19:59:31.685Z,100607.19
2023-04-22T20:03:34.023Z,100615.34
2023-04-22T20:07:36.751Z,100602.84
2023-04-22T20:11:38.869Z,100602.91
2023-04-22T20:15:40.859Z,100598.78
2023-04-22T20:19:44.987Z,100593.41
2023-04-22T20:23:48.232Z,100590.00
2023-04-22T20:27:50.210Z,100584.75
2023-04-22T20:31:53.222Z,100582.00
2023-04-22T20:35:55.124Z,100579.63
2023-04-22T20:40:17.204Z,100573.81
2023-04-22T20:44:21.152Z,100577.13
2023-04-22T20:48:23.438Z,100575.53
2023-04-22T20:52:25.300Z,100572.50
2023-04-22T20:56:42.284Z,100565.75
2023-04-22T21:00:45.209Z,100570.91
2023-04-22T21:04:47.208Z,100566.25
2023-04-22T21:08:52.985Z,100559.72
2023-04-22T21:12:55.257Z,100550.72
2023-04-22T21:17:25.192Z,100554.63
2023-04-22T21:21:32.069Z,100547.38
2023-04-22T21:25:36.721Z,100549.47
2023-04-22T21:29:38.864Z,100541.13
2023-04-22T21:33:40.664Z,100530.09
2023-04-22T21:37:47.240Z,100535.31
2023-04-22T21:41:59.782Z,100528.88
2023-04-22T21:46:01.694Z,100522.19
2023-04-22T21:50:03.710Z,100527.34
2023-04-22T21:54:05.740Z,100519.97
2023-04-22T21:58:07.516Z,100517.16
2023-04-22T22:02:09.381Z,100514.56
2023-04-22T22:06:11.217Z,100510.84
2023-04-22T22:10:19.642Z,100512.53
2023-04-22T22:14:23.630Z,100515.41
2023-04-22T22:18:25.791Z,100504.59
2023-04-22T22:22:27.480Z,100507.34
2023-04-22T22:26:29.384Z,100504.91
2023-04-22T22:30:33.462Z,100503.28
2023-04-22T22:34:35.474Z,100498.16
2023-04-22T22:38:37.463Z,100493.19
2023-04-22T22:42:39.222Z,100485.84
2023-04-22T22:46:41.070Z,100489.13
2023-04-22T22:50:43.533Z,100480.69
2023-04-22T22:54:46.118Z,100480.34
2023-04-22T22:58:48.272Z,100476.72
2023-04-22T23:02:50.551Z,100480.66
2023-04-22T23:06:52.455Z,100466.53
2023-04-22T23:10:54.305Z,100462.22
2023-04-22T23:14:56.733Z,100459.81
2023-04-22T23:18:59.552Z,100461.53
2023-04-22T23:23:04.993Z,100458.81
2023-04-22T23:27:07.141Z,100455.41
2023-04-22T23:31:10.037Z,100451.13
2023-04-22T23:35:14.261Z,100451.63
2023-04-22T23:39:16.074Z,100435.31
2023-04-22T23:43:17.765Z,100439.75
2023-04-22T23:47:21.850Z,100448.09
2023-04-22T23:51:24.215Z,100450.41
2023-04-22T23:55:26.259Z,100444.22
2023-04-22T23:59:28.429Z,100432.19
